Time;durP1;ratioP1;P1;durP2;ratioP2;P2;SDS_P1;SDS_P2;PMS_P1;PMS_P2;Temp;Humidity;BMP_temperature;BMP_pressure;BME280_temperature;BME280_humidity;BME280_pressure;Samples;Min_cycle;Max_cycle;Signal;HPM_P1;HPM_P2
2022/04/06 00:00:29;;;;;;;4.97;2.80;;;;;;;18.42;50.78;99703.13;5032477;28;20644;-59
2022/04/06 00:02:54;;;;;;;3.03;1.83;;;;;;;18.42;50.84;99698.22;5032241;28;20177;-59
2022/04/06 00:05:20;;;;;;;7.40;2.23;;;;;;;18.41;50.99;99690.88;5032776;28;20169;-60
2022/04/06 00:07:45;;;;;;;2.50;1.73;;;;;;;18.41;51.05;99696.59;5032917;28;20208;-59
2022/04/06 00:10:12;;;;;;;4.37;1.90;;;;;;;18.39;51.00;99687.59;5032692;28;20175;-60
2022/04/06 00:12:37;;;;;;;3.60;1.60;;;;;;;18.43;50.84;99682.75;5032192;28;20184;-59
2022/04/06 00:15:04;;;;;;;4.87;2.40;;;;;;;18.42;50.86;99681.06;5032166;28;20426;-60
2022/04/06 00:17:30;;;;;;;6.20;2.47;;;;;;;18.37;50.96;99687.16;5031881;28;20179;-59
2022/04/06 00:19:55;;;;;;;4.23;1.97;;;;;;;18.37;51.32;99675.72;5032210;28;20926;-59
2022/04/06 00:22:21;;;;;;;6.93;2.00;;;;;;;18.38;51.34;99677.38;5032522;28;20627;-59
2022/04/06 00:24:47;;;;;;;3.13;2.10;;;;;;;18.43;50.80;99677.03;5032191;28;20177;-59
2022/04/06 00:27:13;;;;;;;4.30;1.70;;;;;;;18.40;51.19;99676.97;5032671;28;20315;-59
2022/04/06 00:29:39;;;;;;;5.37;2.30;;;;;;;18.37;51.23;99672.88;5031930;28;20435;-59
2022/04/06 00:32:04;;;;;;;3.30;1.73;;;;;;;18.37;51.16;99681.44;5032478;28;20219;-59
2022/04/06 00:37:14;;;;;;;7.03;2.00;;;;;;;18.43;51.05;99673.34;5031119;28;20283;-60
2022/04/06 00:39:39;;;;;;;3.00;1.77;;;;;;;18.42;51.17;99672.50;5031125;28;20411;-59
2022/04/06 00:42:05;;;;;;;3.80;1.70;;;;;;;18.40;51.23;99668.38;5032008;28;20192;-59
2022/04/06 00:44:34;;;;;;;4.40;1.97;;;;;;;18.39;51.18;99661.88;5031130;28;20271;-59
2022/04/06 00:47:03;;;;;;;4.27;2.00;;;;;;;18.40;51.01;99652.06;5032180;28;20564;-60
2022/04/06 00:49:28;;;;;;;3.13;1.90;;;;;;;18.38;50.95;99659.41;5031068;28;20471;-59
2022/04/06 00:51:54;;;;;;;3.97;2.00;;;;;;;18.39;50.98;99661.03;5032057;28;20431;-60
2022/04/06 00:54:20;;;;;;;4.03;2.00;;;;;;;18.38;51.09;99662.25;5031116;28;20176;-59
2022/04/06 00:56:45;;;;;;;4.27;2.37;;;;;;;18.36;50.97;99653.28;5031595;28;20248;-59
2022/04/06 00:59:11;;;;;;;3.63;1.77;;;;;;;18.38;50.95;99651.66;5013930;28;21138;-59
2022/04/06 01:01:37;;;;;;;3.40;1.80;;;;;;;18.39;51.04;99659.03;5014058;28;20208;-59
2022/04/06 01:04:03;;;;;;;3.30;1.70;;;;;;;18.44;51.39;99655.78;5031572;28;20575;-60
2022/04/06 01:06:28;;;;;;;3.67;1.67;;;;;;;18.43;50.81;99654.16;5031665;28;20191;-59
2022/04/06 01:08:54;;;;;;;11.30;1.90;;;;;;;18.41;51.16;99648.00;5030811;28;20772;-59
2022/04/06 01:11:20;;;;;;;3.47;1.67;;;;;;;18.40;51.13;99652.06;5031498;28;20180;-59
2022/04/06 01:13:46;;;;;;;4.70;1.73;;;;;;;18.38;51.23;99650.84;5030802;28;20181;-59
2022/04/06 01:16:11;;;;;;;3.00;1.50;;;;;;;18.41;51.09;99648.00;5031427;28;20165;-60
2022/04/06 01:18:37;;;;;;;3.80;2.10;;;;;;;18.37;51.41;99641.44;5031057;28;20422;-59
2022/04/06 01:21:03;;;;;;;3.73;1.60;;;;;;;18.37;51.19;99647.13;5030835;28;20180;-60
2022/04/06 01:23:30;;;;;;;3.90;1.70;;;;;;;18.35;51.46;99646.72;5031468;28;20546;-60
2022/04/06 01:25:56;;;;;;;3.13;1.80;;;;;;;18.41;51.27;99630.06;5030594;28;20517;-60
2022/04/06 01:28:21;;;;;;;3.43;1.47;;;;;;;18.43;50.70;99642.72;5031916;28;20461;-59
2022/04/06 01:30:47;;;;;;;4.13;1.97;;;;;;;18.41;51.27;99636.56;5031053;28;20416;-60
2022/04/06 01:33:13;;;;;;;3.50;1.90;;;;;;;18.43;50.91;99630.47;5031039;28;20223;-60
2022/04/06 01:35:41;;;;;;;5.03;1.63;;;;;;;18.41;50.85;99630.84;5031523;28;20415;-60
2022/04/06 01:38:06;;;;;;;2.70;1.47;;;;;;;18.43;51.08;99628.44;5031277;28;20188;-59
2022/04/06 01:40:33;;;;;;;3.63;2.03;;;;;;;18.36;51.44;99631.22;5031186;28;20964;-59
2022/04/06 01:42:58;;;;;;;3.40;1.60;;;;;;;18.38;50.93;99627.97;5031282;28;20632;-59
2022/04/06 01:45:24;;;;;;;3.20;1.87;;;;;;;18.39;51.43;99627.59;5031182;28;20445;-59
2022/04/06 01:47:49;;;;;;;3.50;2.13;;;;;;;18.43;50.89;99624.75;5030878;28;20303;-59
2022/04/06 01:52:59;;;;;;;4.63;1.93;;;;;;;18.40;51.07;99625.53;5031176;28;20743;-60
2022/04/06 01:55:24;;;;;;;3.50;1.63;;;;;;;18.39;51.09;99623.88;5031372;28;20423;-60
2022/04/06 01:57:49;;;;;;;4.00;2.00;;;;;;;18.39;51.18;99621.88;5030623;28;20176;-60
2022/04/06 02:00:17;;;;;;;4.00;1.87;;;;;;;18.42;51.01;99617.41;5029291;28;20176;-59
2022/04/06 02:02:52;;;;;;;2.90;1.73;;;;;;;18.40;50.96;99608.38;5031463;28;20582;-60
2022/04/06 02:05:17;;;;;;;2.50;1.50;;;;;;;18.44;50.94;99610.06;5030677;28;20502;-59
2022/04/06 02:07:43;;;;;;;3.73;1.73;;;;;;;18.41;51.13;99616.56;5030299;28;20810;-59
2022/04/06 02:10:09;;;;;;;4.70;2.00;;;;;;;18.40;50.88;99614.09;5030769;28;20307;-60
2022/04/06 02:12:35;;;;;;;2.83;1.63;;;;;;;18.37;51.24;99606.34;5031542;28;20184;-59
2022/04/06 02:15:00;;;;;;;3.07;1.50;;;;;;;18.37;50.88;99604.28;5031184;28;20179;-59
2022/04/06 02:17:29;;;;;;;5.00;1.90;;;;;;;18.36;51.05;99594.06;5030654;28;20207;-60
2022/04/06 02:19:55;;;;;;;3.37;1.80;;;;;;;18.40;50.96;99592.06;5030719;28;20188;-60
2022/04/06 02:22:21;;;;;;;5.17;2.40;;;;;;;18.40;50.86;99592.06;5031169;28;20419;-60
2022/04/06 02:24:46;;;;;;;1.87;1.20;;;;;;;18.38;51.05;99603.09;5031020;28;20533;-60
2022/04/06 02:27:12;;;;;;;3.07;1.67;;;;;;;18.41;51.02;99593.69;5030805;28;20217;-60
2022/04/06 02:29:39;;;;;;;2.90;1.80;;;;;;;18.40;51.37;99586.34;5029986;28;20177;-60
2022/04/06 02:32:05;;;;;;;3.90;2.07;;;;;;;18.40;50.90;99594.91;5030934;28;20262;-59
2022/04/06 02:34:30;;;;;;;3.23;1.60;;;;;;;18.43;50.80;99590.44;5030415;28;20514;-60
2022/04/06 02:36:56;;;;;;;4.47;1.80;;;;;;;18.40;50.90;99594.09;5033374;28;20172;-60
2022/04/06 02:39:21;;;;;;;3.30;1.57;;;;;;;18.37;51.18;99597.75;5034114;28;20183;-59
2022/04/06 02:41:47;;;;;;;2.80;1.63;;;;;;;18.38;50.89;99593.69;5033879;28;20169;-60
2022/04/06 02:44:12;;;;;;;2.63;1.50;;;;;;;18.40;51.02;99589.22;5034189;28;20318;-60
2022/04/06 02:46:38;;;;;;;2.50;1.53;;;;;;;18.40;50.87;99586.34;5034044;28;20560;-60
2022/04/06 02:49:04;;;;;;;3.80;1.77;;;;;;;18.40;51.25;99582.66;5033570;28;20259;-60
2022/04/06 02:51:29;;;;;;;3.47;1.70;;;;;;;18.39;51.34;99581.03;5033957;28;20176;-59
2022/04/06 02:53:54;;;;;;;3.47;1.73;;;;;;;18.46;51.40;99566.81;5033623;28;20589;-59
2022/04/06 02:56:20;;;;;;;2.93;1.47;;;;;;;18.46;50.70;99566.81;5034113;28;20177;-59
2022/04/06 02:58:45;;;;;;;3.10;1.83;;;;;;;18.42;50.96;99578.19;5034208;28;20180;-59
2022/04/06 03:01:11;;;;;;;3.37;1.77;;;;;;;18.42;50.78;99565.94;5033822;28;20218;-59
2022/04/06 03:03:36;;;;;;;2.90;1.70;;;;;;;18.46;51.07;99566.81;5033851;28;20529;-60
2022/04/06 03:06:02;;;;;;;2.83;1.80;;;;;;;18.44;51.06;99569.22;5033507;28;20180;-60
2022/04/06 03:08:27;;;;;;;3.20;1.67;;;;;;;18.38;50.94;99568.78;5033793;28;20196;-60
2022/04/06 03:10:53;;;;;;;2.37;1.37;;;;;;;18.41;51.06;99567.19;5015752;28;20176;-59
2022/04/06 03:13:18;;;;;;;2.83;1.60;;;;;;;18.46;50.74;99563.94;5033293;28;20177;-60
2022/04/06 03:15:43;;;;;;;2.60;1.60;;;;;;;18.49;50.74;99560.28;5032789;28;20179;-60
2022/04/06 03:18:09;;;;;;;3.53;1.57;;;;;;;18.48;50.83;99562.31;5033354;28;20181;-60
2022/04/06 03:20:35;;;;;;;2.93;1.80;;;;;;;18.47;50.78;99549.22;5033700;28;20184;-60
2022/04/06 03:23:00;;;;;;;2.33;1.50;;;;;;;18.50;50.98;99547.59;5033315;28;20678;-61
2022/04/06 03:25:26;;;;;;;3.90;1.63;;;;;;;18.43;50.93;99542.69;5033373;28;20640;-60
2022/04/06 03:27:51;;;;;;;3.50;1.30;;;;;;;18.46;50.86;99546.78;5033310;28;20292;-60
2022/04/06 03:30:17;;;;;;;3.20;1.70;;;;;;;18.48;51.01;99548.03;5033100;28;20181;-60
2022/04/06 03:32:42;;;;;;;3.13;1.77;;;;;;;18.47;50.82;99548.44;5033194;28;20188;-59
2022/04/06 03:35:08;;;;;;;2.50;1.40;;;;;;;18.43;50.87;99542.69;5033384;28;20206;-60
2022/04/06 03:37:34;;;;;;;2.20;1.40;;;;;;;18.47;50.70;99540.66;5033481;28;20199;-59
2022/04/06 03:39:59;;;;;;;2.77;1.50;;;;;;;18.44;51.17;99540.63;5015337;28;20470;-60
2022/04/06 03:42:25;;;;;;;3.00;1.50;;;;;;;18.45;51.20;99537.38;5033077;28;20180;-60
2022/04/06 03:44:50;;;;;;;3.10;1.60;;;;;;;18.44;50.76;99530.03;5033308;28;20179;-60
2022/04/06 03:47:16;;;;;;;2.70;1.57;;;;;;;18.49;51.06;99543.94;5031588;28;20203;-60
2022/04/06 03:49:41;;;;;;;3.07;1.57;;;;;;;18.44;50.99;99535.75;5032682;28;20224;-60
2022/04/06 03:52:06;;;;;;;4.50;2.40;;;;;;;18.45;50.68;99528.81;5033198;28;20529;-60
2022/04/06 03:54:32;;;;;;;3.03;1.50;;;;;;;18.44;50.86;99529.22;5033035;28;20590;-60
2022/04/06 03:56:57;;;;;;;3.13;1.50;;;;;;;18.41;51.09;99527.16;5032739;28;20161;-60
2022/04/06 03:59:23;;;;;;;4.70;1.67;;;;;;;18.43;50.66;99528.41;5032785;28;20191;-60
2022/04/06 04:01:48;;;;;;;2.70;1.60;;;;;;;18.45;51.03;99530.84;5032699;28;20180;-59
2022/04/06 04:04:14;;;;;;;4.23;1.70;;;;;;;18.47;50.62;99525.56;5031861;28;20177;-59
2022/04/06 04:06:40;;;;;;;3.50;1.93;;;;;;;18.44;50.76;99521.47;5032986;28;20157;-60
2022/04/06 04:09:05;;;;;;;3.90;1.73;;;;;;;18.44;51.02;99524.31;5032875;28;20419;-60
2022/04/06 04:11:31;;;;;;;3.00;1.80;;;;;;;18.44;50.95;99518.59;5032718;28;20211;-59
2022/04/06 04:13:56;;;;;;;2.20;1.33;;;;;;;18.45;50.81;99514.53;5032172;28;20180;-60
2022/04/06 04:16:22;;;;;;;3.50;1.50;;;;;;;18.48;50.94;99512.91;5032788;28;20255;-60
2022/04/06 04:18:47;;;;;;;2.50;1.40;;;;;;;18.45;50.76;99511.66;5032254;28;20177;-60
2022/04/06 04:21:31;;;;;;;3.10;1.50;;;;;;;18.47;51.10;99509.22;5031993;28;20263;-60
2022/04/06 04:23:57;;;;;;;4.17;1.53;;;;;;;18.48;50.87;99510.88;5013963;28;20219;-60
2022/04/06 04:26:22;;;;;;;3.13;1.63;;;;;;;18.45;50.88;99507.97;5032232;28;20803;-60
2022/04/06 04:28:48;;;;;;;3.17;1.30;;;;;;;18.46;50.69;99510.44;5031805;28;20260;-60
2022/04/06 04:31:13;;;;;;;2.17;1.40;;;;;;;18.45;50.67;99511.66;5031936;28;20184;-60
2022/04/06 04:33:39;;;;;;;2.47;1.27;;;;;;;18.44;50.87;99514.91;5032344;28;20181;-60
2022/04/06 04:36:04;;;;;;;3.30;1.67;;;;;;;18.46;50.86;99510.44;5031941;28;20180;-59
2022/04/06 04:38:29;;;;;;;2.67;1.47;;;;;;;18.51;50.91;99510.06;5031617;28;20516;-60
2022/04/06 04:40:55;;;;;;;2.80;1.60;;;;;;;18.49;50.70;99503.09;5032215;28;20576;-60
2022/04/06 04:43:22;;;;;;;2.60;1.30;;;;;;;18.49;50.68;99503.94;5031933;28;20180;-60
2022/04/06 04:45:48;;;;;;;2.80;1.40;;;;;;;18.47;50.63;99512.06;5031802;28;20200;-60
2022/04/06 04:48:13;;;;;;;1.97;1.37;;;;;;;18.52;50.59;99514.56;5009600;28;20479;-60
2022/04/06 04:50:38;;;;;;;2.33;1.17;;;;;;;18.50;50.67;99511.28;5011523;28;20212;-60
2022/04/06 04:53:05;;;;;;;3.87;1.43;;;;;;;18.48;50.51;99508.03;5012034;28;20535;-59
2022/04/06 04:55:31;;;;;;;2.13;1.40;;;;;;;18.52;50.83;99513.75;5011236;28;20176;-60
2022/04/06 04:57:57;;;;;;;2.60;1.23;;;;;;;18.47;50.74;99512.06;5012117;28;20478;-59
2022/04/06 05:00:23;;;;;;;3.20;1.40;;;;;;;18.47;51.13;99502.69;5011365;28;20432;-60
2022/04/06 05:02:48;;;;;;;2.50;1.50;;;;;;;18.50;50.68;99508.44;5011715;28;20176;-60
2022/04/06 05:05:14;;;;;;;2.60;1.40;;;;;;;18.54;50.49;99506.41;5012249;28;20200;-59
2022/04/06 05:07:39;;;;;;;2.00;1.13;;;;;;;18.47;50.93;99505.56;5011875;28;20205;-60
2022/04/06 05:10:09;;;;;;;2.87;1.70;;;;;;;18.45;51.13;99507.97;5011783;28;20540;-60
2022/04/06 05:12:34;;;;;;;3.30;1.63;;;;;;;18.47;50.86;99506.34;5011703;28;20645;-60
2022/04/06 05:15:00;;;;;;;2.17;1.40;;;;;;;18.49;50.84;99503.94;5011027;28;20428;-61
2022/04/06 05:17:26;;;;;;;2.90;1.40;;;;;;;18.49;50.64;99514.53;5009845;28;20173;-60
2022/04/06 05:19:52;;;;;;;3.50;1.40;;;;;;;18.51;51.14;99515.78;5012011;28;20203;-60
2022/04/06 05:22:18;;;;;;;2.43;1.20;;;;;;;18.45;50.79;99510.84;5010440;28;20427;-61
2022/04/06 05:24:43;;;;;;;3.00;1.50;;;;;;;18.49;51.13;99506.78;5011794;28;20424;-59
2022/04/06 05:27:08;;;;;;;1.90;1.10;;;;;;;18.50;50.79;99508.44;5011740;28;20687;-60
2022/04/06 05:29:34;;;;;;;4.07;1.30;;;;;;;18.53;50.77;99509.66;5011488;28;20196;-60
2022/04/06 05:32:00;;;;;;;1.77;1.07;;;;;;;18.43;50.83;99505.53;5010551;28;20173;-60
2022/04/06 05:34:25;;;;;;;1.83;1.10;;;;;;;18.45;50.74;99502.25;5011275;28;20188;-60
2022/04/06 05:36:51;;;;;;;2.40;1.40;;;;;;;18.46;50.88;99506.78;5012157;28;20239;-60
2022/04/06 05:39:16;;;;;;;2.10;1.17;;;;;;;18.48;50.96;99507.19;5011930;28;20189;-60
2022/04/06 05:41:41;;;;;;;2.10;1.20;;;;;;;18.45;51.15;99508.81;5011613;28;20637;-61
2022/04/06 05:44:07;;;;;;;2.10;1.30;;;;;;;18.47;50.83;99497.78;5011110;28;20185;-59
2022/04/06 05:46:32;;;;;;;2.73;1.37;;;;;;;18.47;50.65;99503.50;5011858;28;20684;-60
2022/04/06 05:48:58;;;;;;;2.43;1.17;;;;;;;18.47;50.82;99508.41;5022050;28;20224;-60
2022/04/06 05:51:23;;;;;;;2.30;1.47;;;;;;;18.47;50.60;99500.63;5029064;28;20203;-60
2022/04/06 05:53:49;;;;;;;3.00;1.40;;;;;;;18.50;51.07;99514.16;5030950;28;20188;-60
2022/04/06 05:56:14;;;;;;;2.00;1.20;;;;;;;18.47;51.05;99512.06;5030850;28;20180;-60
2022/04/06 05:58:42;;;;;;;2.33;1.20;;;;;;;18.49;50.52;99511.69;5031271;28;20191;-60
2022/04/06 06:01:08;;;;;;;3.63;1.60;;;;;;;18.50;50.92;99517.00;5025237;28;20196;-60
2022/04/06 06:03:34;;;;;;;6.60;2.20;;;;;;;18.41;51.20;99512.88;5025238;28;20552;-61
2022/04/06 06:05:59;;;;;;;8.07;4.00;;;;;;;18.42;51.06;99515.31;5029213;28;20203;-60
2022/04/06 06:08:25;;;;;;;6.63;3.80;;;;;;;18.44;50.99;99518.59;5028308;28;20262;-60
2022/04/06 06:10:50;;;;;;;20.47;5.13;;;;;;;18.59;51.40;99523.19;5029132;28;20169;-60
2022/04/06 06:13:16;;;;;;;13.17;4.97;;;;;;;18.57;50.95;99519.88;5033643;28;20267;-61
2022/04/06 06:15:41;;;;;;;8.63;3.80;;;;;;;18.66;51.64;99520.34;5031721;28;20283;-60
2022/04/06 06:18:08;;;;;;;9.47;4.07;;;;;;;18.80;51.66;99519.59;5032752;28;20181;-61
2022/04/06 06:20:34;;;;;;;10.80;4.20;;;;;;;18.75;51.42;99512.22;5032508;28;20226;-61
2022/04/06 06:22:59;;;;;;;16.20;4.97;;;;;;;18.88;52.23;99509.84;5033415;28;20419;-61
2022/04/06 06:25:25;;;;;;;7.13;3.50;;;;;;;18.87;52.01;99508.22;5033119;28;20682;-61
2022/04/06 06:27:50;;;;;;;6.37;3.87;;;;;;;18.85;51.85;99516.34;5032008;28;20250;-61
2022/04/06 06:30:15;;;;;;;8.57;4.20;;;;;;;18.95;50.92;99512.72;5032056;28;20187;-61
2022/04/06 06:32:41;;;;;;;21.50;8.50;;;;;;;18.91;52.07;99509.84;5032980;28;20176;-61
2022/04/06 06:35:08;;;;;;;11.73;6.00;;;;;;;18.97;52.27;99513.16;5032765;28;20653;-60
2022/04/06 06:37:34;;;;;;;21.20;6.60;;;;;;;19.07;52.32;99510.31;5031878;28;20192;-60
2022/04/06 06:39:59;;;;;;;14.73;7.00;;;;;;;19.07;52.61;99512.38;5032455;28;20509;-60
2022/04/06 06:42:25;;;;;;;13.10;6.13;;;;;;;19.09;52.86;99509.91;5032015;28;20438;-60
2022/04/06 06:44:51;;;;;;;12.17;6.00;;;;;;;19.19;53.12;99515.69;5032363;28;20184;-60
2022/04/06 06:47:16;;;;;;;12.40;6.40;;;;;;;19.10;53.93;99515.22;5032461;28;20674;-60
2022/04/06 06:49:46;;;;;;;14.73;6.07;;;;;;;19.10;53.45;99512.38;5030575;28;20657;-60
2022/04/06 06:52:14;;;;;;;12.63;5.67;;;;;;;18.95;52.98;99510.69;5031800;28;20539;-61
2022/04/06 06:54:39;;;;;;;9.60;5.00;;;;;;;18.86;52.18;99507.38;5033090;28;20447;-61
2022/04/06 06:57:05;;;;;;;10.90;5.00;;;;;;;18.83;51.81;99508.19;5032651;28;20461;-61
2022/04/06 06:59:30;;;;;;;18.13;5.30;;;;;;;18.80;51.97;99503.25;5030246;28;20356;-61
2022/04/06 07:01:56;;;;;;;14.07;4.77;;;;;;;18.84;52.79;99503.28;5030874;28;20207;-61
2022/04/06 07:04:22;;;;;;;18.03;5.10;;;;;;;18.81;52.91;99510.63;5033425;28;20632;-60
2022/04/06 07:06:51;;;;;;;15.67;4.83;;;;;;;18.84;53.13;99506.97;5033989;28;20184;-60
2022/04/06 07:09:16;;;;;;;15.03;4.80;;;;;;;18.86;52.84;99500.84;5033412;28;20434;-60
2022/04/06 07:11:42;;;;;;;15.50;5.30;;;;;;;18.85;52.98;99507.78;5032597;28;20494;-60
2022/04/06 07:14:07;;;;;;;12.13;4.10;;;;;;;18.88;52.67;99499.22;5032426;28;20180;-61
2022/04/06 07:16:33;;;;;;;9.63;4.00;;;;;;;18.86;53.19;99495.94;5014293;28;20227;-61
2022/04/06 07:18:58;;;;;;;10.10;4.50;;;;;;;18.83;53.33;99495.94;5031539;28;20585;-61
2022/04/06 07:21:23;;;;;;;12.40;4.70;;;;;;;18.83;52.77;99493.91;5033482;28;20180;-61
2022/04/06 07:23:49;;;;;;;14.73;3.90;;;;;;;18.81;53.18;99484.88;5033474;28;20181;-61
2022/04/06 07:26:17;;;;;;;9.93;4.73;;;;;;;18.83;52.95;99475.91;5032119;28;20227;-61
2022/04/06 07:28:45;;;;;;;11.80;4.30;;;;;;;18.82;53.14;99477.13;5033558;28;20208;-61
2022/04/06 07:31:11;;;;;;;13.20;4.33;;;;;;;18.78;53.18;99470.56;5033588;28;20515;-61
2022/04/06 07:33:37;;;;;;;8.70;3.97;;;;;;;18.78;53.13;99471.41;5032979;28;20411;-61
2022/04/06 07:36:06;;;;;;;9.60;4.10;;;;;;;18.78;52.98;99468.53;5032569;28;20477;-61
2022/04/06 07:38:32;;;;;;;10.50;4.20;;;;;;;18.76;53.43;99470.97;5033591;28;20407;-61
2022/04/06 07:40:58;;;;;;;14.40;4.10;;;;;;;18.73;53.10;99471.78;5033457;28;20439;-61
2022/04/06 07:43:24;;;;;;;9.07;3.67;;;;;;;18.73;53.17;99468.94;5033447;28;20497;-61
2022/04/06 07:45:49;;;;;;;8.47;4.13;;;;;;;18.71;53.23;99465.66;5033001;28;20251;-61
2022/04/06 07:48:15;;;;;;;11.53;4.13;;;;;;;18.69;53.18;99468.09;5033311;28;20231;-61
2022/04/06 07:50:40;;;;;;;8.30;3.70;;;;;;;18.71;53.36;99468.50;5033272;28;20226;-61
2022/04/06 07:53:05;;;;;;;13.63;3.40;;;;;;;18.68;53.22;99466.47;5031730;28;20157;-61
2022/04/06 07:55:31;;;;;;;12.03;3.37;;;;;;;18.70;53.22;99472.59;5031820;28;20173;-61
2022/04/06 07:57:57;;;;;;;9.30;3.30;;;;;;;18.67;53.21;99476.25;5033182;28;20553;-61
2022/04/06 08:00:22;;;;;;;10.23;3.80;;;;;;;18.68;53.45;99468.50;5033130;28;20172;-61
2022/04/06 08:02:48;;;;;;;10.30;4.30;;;;;;;18.67;53.46;99467.66;5033151;28;20168;-61
2022/04/06 08:05:14;;;;;;;10.60;4.33;;;;;;;18.69;53.31;99465.25;5032204;28;20176;-61
2022/04/06 08:07:42;;;;;;;7.20;3.53;;;;;;;18.67;53.21;99459.09;5015723;28;20470;-61
2022/04/06 08:10:08;;;;;;;11.30;3.50;;;;;;;18.70;53.16;99466.03;5032203;28;20224;-61
2022/04/06 08:12:35;;;;;;;12.13;4.50;;;;;;;18.65;53.26;99464.41;5032182;28;20906;-61
2022/04/06 08:15:00;;;;;;;9.33;3.33;;;;;;;18.67;53.03;99461.94;5032623;28;20461;-61
2022/04/06 08:17:26;;;;;;;7.73;3.30;;;;;;;18.62;53.26;99465.19;5032255;28;20443;-61
2022/04/06 08:19:52;;;;;;;8.13;3.20;;;;;;;18.62;53.37;99467.25;5032965;28;20169;-61
2022/04/06 08:22:17;;;;;;;8.63;3.37;;;;;;;18.62;53.41;99465.19;5032732;28;20168;-61
2022/04/06 08:24:43;;;;;;;8.40;3.40;;;;;;;18.65;53.02;99467.25;5032138;28;20196;-61
2022/04/06 08:27:08;;;;;;;11.47;3.20;;;;;;;18.64;53.60;99465.63;5032345;28;20203;-61
2022/04/06 08:29:34;;;;;;;9.03;3.43;;;;;;;18.64;53.46;99468.47;5013841;28;20184;-60
2022/04/06 08:31:59;;;;;;;8.17;3.10;;;;;;;18.65;53.34;99464.41;5032415;28;20203;-60
2022/04/06 08:34:25;;;;;;;8.10;3.60;;;;;;;18.66;53.37;99463.16;5032027;28;20259;-60
2022/04/06 08:36:50;;;;;;;9.93;3.40;;;;;;;18.65;53.29;99472.16;5032144;28;20223;-60
2022/04/06 08:39:15;;;;;;;7.10;3.20;;;;;;;18.66;53.26;99457.44;5030533;28;20180;-60
2022/04/06 08:41:41;;;;;;;8.77;3.20;;;;;;;18.67;53.42;99461.16;5031408;28;20172;-60
2022/04/06 08:44:07;;;;;;;11.90;3.77;;;;;;;18.67;53.09;99461.94;5014054;28;20238;-60
2022/04/06 08:46:39;;;;;;;10.47;3.80;;;;;;;18.68;53.21;99457.06;5031758;28;20192;-60
2022/04/06 08:49:05;;;;;;;8.30;3.50;;;;;;;18.69;53.19;99467.25;5031246;28;20471;-60
2022/04/06 08:51:33;;;;;;;6.50;3.20;;;;;;;18.70;52.97;99457.47;5014489;28;20410;-60
2022/04/06 08:53:58;;;;;;;7.23;3.10;;;;;;;18.68;53.13;99463.59;5014566;28;20176;-62
2022/04/06 08:56:23;;;;;;;7.70;2.90;;;;;;;18.71;53.03;99462.78;5032182;28;20430;-61
2022/04/06 08:58:49;;;;;;;7.47;3.27;;;;;;;18.70;53.06;99461.16;5031808;28;20234;-61
2022/04/06 09:01:14;;;;;;;9.20;3.27;;;;;;;18.66;53.07;99457.44;5031526;28;20161;-61
2022/04/06 09:03:40;;;;;;;7.43;3.30;;;;;;;18.68;53.14;99449.31;5031456;28;20172;-61
2022/04/06 09:06:08;;;;;;;6.37;3.40;;;;;;;18.68;53.09;99455.03;5031101;28;20258;-61
2022/04/06 09:08:39;;;;;;;5.80;2.67;;;;;;;18.66;53.17;99448.88;5031821;28;20454;-61
2022/04/06 09:11:15;;;;;;;9.70;3.40;;;;;;;18.68;53.01;99455.03;5013752;28;20916;-61
2022/04/06 09:13:42;;;;;;;9.03;2.87;;;;;;;18.71;52.93;99457.06;5030695;28;20423;-61
2022/04/06 09:16:15;;;;;;;7.00;3.10;;;;;;;18.67;52.92;99446.84;5031616;28;20999;-61
2022/04/06 09:18:45;;;;;;;5.27;3.03;;;;;;;18.66;52.97;99445.22;5031570;28;20400;-60
2022/04/06 09:21:15;;;;;;;3.67;2.43;;;;;;;18.65;53.12;99449.28;5030555;28;20484;-60
2022/04/06 09:23:41;;;;;;;6.83;3.20;;;;;;;18.66;53.23;99451.72;5031272;28;20415;-60
2022/04/06 09:26:08;;;;;;;8.17;3.27;;;;;;;18.66;53.41;99454.59;5031126;28;20788;-60
2022/04/06 09:28:40;;;;;;;7.37;2.60;;;;;;;18.65;53.32;99450.09;5031195;28;20250;-60
2022/04/06 09:31:06;;;;;;;5.50;2.70;;;;;;;18.65;52.95;99444.38;5031489;28;20487;-61
2022/04/06 09:33:32;;;;;;;7.00;2.70;;;;;;;18.65;53.00;99446.41;5031749;28;20550;-61
2022/04/06 09:35:58;;;;;;;7.67;3.10;;;;;;;18.64;52.99;99442.75;5031138;28;20587;-61
2022/04/06 09:38:29;;;;;;;6.50;3.00;;;;;;;18.63;53.16;99438.25;5031138;28;20263;-61
2022/04/06 09:41:05;;;;;;;7.47;2.80;;;;;;;18.64;53.16;99434.19;5030853;28;20414;-61
2022/04/06 09:43:32;;;;;;;9.30;3.40;;;;;;;18.65;53.13;99432.94;5031606;28;20403;-61
2022/04/06 09:49:13;;;;;;;4.90;2.90;;;;;;;18.63;53.04;99428.84;5034876;28;20481;-61
2022/04/06 09:51:42;;;;;;;7.07;2.83;;;;;;;18.64;52.85;99428.47;5019329;28;20398;-61
2022/04/06 09:54:09;;;;;;;5.43;2.60;;;;;;;18.62;52.78;99419.44;5034975;28;20435;-61
2022/04/06 09:56:35;;;;;;;7.07;2.87;;;;;;;18.61;53.06;99420.69;5001210;28;20510;-61
2022/04/06 09:59:02;;;;;;;5.37;2.80;;;;;;;18.62;53.21;99422.31;5034480;28;20426;-61
2022/04/06 10:01:33;;;;;;;5.47;2.87;;;;;;;18.62;53.32;99421.50;5035264;28;20857;-61
2022/04/06 10:04:04;;;;;;;7.53;2.60;;;;;;;18.61;53.03;99397.81;5034657;28;20419;-61
2022/04/06 10:06:32;;;;;;;5.40;2.70;;;;;;;18.62;53.03;99410.06;5033753;28;20476;-60
2022/04/06 10:08:59;;;;;;;5.23;2.70;;;;;;;18.61;52.94;99408.44;5016404;28;20487;-60
2022/04/06 10:11:24;;;;;;;9.10;3.17;;;;;;;18.62;52.94;99407.22;5016845;28;20770;-60
2022/04/06 10:13:49;;;;;;;5.20;2.60;;;;;;;18.61;53.05;99406.38;5035182;28;20423;-60
2022/04/06 10:16:16;;;;;;;7.30;3.47;;;;;;;18.62;53.02;99402.28;5016858;28;20242;-60
2022/04/06 10:18:42;;;;;;;5.23;2.70;;;;;;;18.62;53.34;99402.28;5034245;28;20173;-60
2022/04/06 10:21:12;;;;;;;5.67;3.07;;;;;;;18.62;52.94;99401.50;5034287;28;20465;-60
2022/04/06 10:24:05;;;;;;;5.50;2.63;;;;;;;18.61;53.17;99403.53;5035068;28;20169;-60
2022/04/06 10:26:46;;;;;;;5.77;2.57;;;;;;;18.63;53.16;99394.56;5034655;28;20497;-60
2022/04/06 10:29:11;;;;;;;7.27;2.90;;;;;;;18.62;52.96;99390.88;5026028;28;20616;-60
2022/04/06 10:31:37;;;;;;;4.50;2.40;;;;;;;18.61;53.06;99392.09;5034366;28;20942;-60
2022/04/06 10:34:22;;;;;;;6.30;3.20;;;;;;;18.62;52.95;99390.06;5034393;28;20651;-60
2022/04/06 10:37:10;;;;;;;9.13;2.50;;;;;;;18.62;53.15;99388.00;5032699;28;20575;-61
2022/04/06 10:39:50;;;;;;;5.57;2.47;;;;;;;18.64;52.84;99379.84;5034059;28;20513;-61
2022/04/06 10:42:18;;;;;;;5.70;2.60;;;;;;;18.60;52.86;99381.88;5033521;28;20980;-61
2022/04/06 10:44:44;;;;;;;5.80;2.80;;;;;;;18.64;52.79;99379.03;5032917;28;20426;-61
2022/04/06 10:47:11;;;;;;;9.27;3.00;;;;;;;18.62;53.03;99372.91;5032517;28;20423;-61
2022/04/06 10:49:36;;;;;;;4.53;2.50;;;;;;;18.61;52.86;99369.22;5013014;28;20676;-61
2022/04/06 10:52:25;;;;;;;6.40;2.63;;;;;;;18.60;53.21;99369.63;5014483;28;20428;-60
2022/04/06 10:54:54;;;;;;;5.43;2.70;;;;;;;18.63;52.96;99363.94;5014171;28;20165;-60
2022/04/06 10:57:20;;;;;;;5.17;2.20;;;;;;;18.61;53.08;99363.50;5011440;28;20465;-60
2022/04/06 11:00:14;;;;;;;6.40;2.87;;;;;;;18.62;53.31;99367.19;5014105;28;20840;-60
2022/04/06 11:02:47;;;;;;;8.03;2.40;;;;;;;18.62;52.81;99350.84;5013097;28;20416;-60
2022/04/06 11:05:30;;;;;;;4.33;2.23;;;;;;;18.64;53.10;99348.41;5013533;28;20993;-60
2022/04/06 11:10:41;;;;;;;5.17;2.60;;;;;;;18.64;52.72;99348.41;5013637;28;20466;-60
2022/04/06 11:13:08;;;;;;;3.23;1.70;;;;;;;18.63;52.84;99340.22;5014502;28;20817;-60
2022/04/06 11:15:38;;;;;;;5.80;2.60;;;;;;;18.62;52.86;99322.25;5012860;28;20446;-60
2022/04/06 11:18:05;;;;;;;6.10;2.13;;;;;;;18.65;52.96;99337.78;5014042;28;20419;-60
2022/04/06 11:20:32;;;;;;;5.97;3.03;;;;;;;18.65;53.14;99332.88;5012523;28;20446;-60
2022/04/06 11:22:58;;;;;;;4.43;2.50;;;;;;;18.64;53.06;99330.44;5012936;28;20420;-60
2022/04/06 11:25:26;;;;;;;6.27;2.73;;;;;;;18.64;53.05;99324.72;5013793;28;20427;-60
2022/04/06 11:27:54;;;;;;;4.40;2.07;;;;;;;18.64;53.66;99313.28;5013678;28;20661;-60
2022/04/06 11:30:22;;;;;;;5.00;2.20;;;;;;;18.64;52.92;99319.81;5013349;28;20515;-60
2022/04/06 11:32:55;;;;;;;5.60;2.13;;;;;;;18.64;52.96;99311.25;5012325;28;20424;-60
2022/04/06 11:35:21;;;;;;;4.13;2.07;;;;;;;18.65;52.66;99312.03;5013535;28;20435;-60
2022/04/06 11:37:48;;;;;;;5.80;2.10;;;;;;;18.65;52.74;99307.16;5011722;28;20782;-60
2022/04/06 11:40:15;;;;;;;5.07;2.20;;;;;;;18.65;53.03;99304.31;5012340;28;20443;-60